Time;durP1;ratioP1;P1;durP2;ratioP2;P2;SDS_P1;SDS_P2;PMS_P1;PMS_P2;Temp;Humidity;BMP_temperature;BMP_pressure;BME280_temperature;BME280_humidity;BME280_pressure;Samples;Min_cycle;Max_cycle;Signal;HPM_P1;HPM_P2
2021/01/14 00:01:59;;;;;;;;;;;22.20;35.20;;;;;;1516785;76;827;-59
2021/01/14 00:04:00;;;;;;;;;;;22.20;35.20;;;;;;1521151;76;745;-60
2021/01/14 00:06:04;;;;;;;;;;;22.20;35.20;;;;;;1513522;76;796;-60
2021/01/14 00:08:06;;;;;;;;;;;22.20;35.20;;;;;;1519741;76;1672;-59
2021/01/14 00:10:09;;;;;;;;;;;22.20;35.10;;;;;;1520910;76;702;-59
2021/01/14 00:12:10;;;;;;;;;;;22.20;35.10;;;;;;1515710;76;705;-60
2021/01/14 00:14:12;;;;;;;;;;;22.20;35.10;;;;;;1520501;76;753;-59
2021/01/14 00:16:14;;;;;;;;;;;22.20;35.10;;;;;;1509449;76;1068;-60
2021/01/14 00:18:16;;;;;;;;;;;22.30;35.30;;;;;;1521663;76;1933;-58
2021/01/14 00:20:19;;;;;;;;;;;22.30;35.20;;;;;;1521635;76;870;-58
2021/01/14 00:22:21;;;;;;;;;;;22.30;35.20;;;;;;1521670;76;771;-60
2021/01/14 00:24:23;;;;;;;;;;;22.30;35.20;;;;;;1519582;76;741;-58
2021/01/14 00:26:24;;;;;;;;;;;22.20;35.10;;;;;;1518567;76;1143;-59
2021/01/14 00:28:26;;;;;;;;;;;22.20;35.00;;;;;;1521436;76;789;-59
2021/01/14 00:30:29;;;;;;;;;;;22.20;35.00;;;;;;1521337;76;885;-59
2021/01/14 00:32:31;;;;;;;;;;;22.20;35.00;;;;;;1521639;76;631;-59
2021/01/14 00:34:32;;;;;;;;;;;22.20;35.10;;;;;;1521677;76;778;-58
2021/01/14 00:38:59;;;;;;;;;;;22.20;35.10;;;;;;1504303;76;1901;-60
2021/01/14 00:41:01;;;;;;;;;;;22.10;35.30;;;;;;1511544;76;750;-60
2021/01/14 00:43:08;;;;;;;;;;;22.20;35.50;;;;;;1520058;76;727;-59
2021/01/14 00:45:10;;;;;;;;;;;22.00;35.70;;;;;;1519836;76;814;-59
2021/01/14 00:47:12;;;;;;;;;;;22.00;36.10;;;;;;1520762;76;1198;-59
2021/01/14 00:49:14;;;;;;;;;;;21.90;36.20;;;;;;1521246;76;715;-58
2021/01/14 00:51:16;;;;;;;;;;;22.00;36.30;;;;;;1521142;76;729;-59
2021/01/14 00:53:18;;;;;;;;;;;22.00;36.30;;;;;;1521502;76;706;-60
2021/01/14 00:55:20;;;;;;;;;;;22.10;36.50;;;;;;1515862;76;719;-61
2021/01/14 00:57:21;;;;;;;;;;;22.10;36.40;;;;;;1520590;76;1925;-61
2021/01/14 00:59:23;;;;;;;;;;;22.20;36.30;;;;;;1514278;76;791;-60
2021/01/14 01:01:26;;;;;;;;;;;22.20;36.20;;;;;;1514145;76;784;-59
2021/01/14 01:03:28;;;;;;;;;;;22.30;36.30;;;;;;1519400;76;793;-58
2021/01/14 01:05:29;;;;;;;;;;;22.20;36.20;;;;;;1505783;76;744;-60
2021/01/14 01:07:32;;;;;;;;;;;22.30;36.30;;;;;;1515903;76;1102;-60
2021/01/14 01:09:33;;;;;;;;;;;22.20;36.20;;;;;;1520994;76;760;-59
2021/01/14 01:11:35;;;;;;;;;;;22.20;36.30;;;;;;1513586;76;712;-59
2021/01/14 01:13:37;;;;;;;;;;;22.30;36.50;;;;;;1516758;76;714;-58
2021/01/14 01:15:39;;;;;;;;;;;22.10;36.40;;;;;;1509102;76;731;-60
2021/01/14 01:17:41;;;;;;;;;;;22.20;36.50;;;;;;1509442;76;2203;-59
2021/01/14 01:19:43;;;;;;;;;;;22.20;36.50;;;;;;1512784;76;654;-59
2021/01/14 01:21:45;;;;;;;;;;;22.20;36.50;;;;;;1511008;76;813;-59
2021/01/14 01:23:47;;;;;;;;;;;22.20;36.50;;;;;;1506928;76;768;-59
2021/01/14 01:25:49;;;;;;;;;;;22.20;36.70;;;;;;1505284;76;815;-59
2021/01/14 01:27:50;;;;;;;;;;;22.20;36.70;;;;;;1507998;76;1119;-59
2021/01/14 01:29:52;;;;;;;;;;;22.20;36.80;;;;;;1504936;76;736;-59
2021/01/14 01:31:54;;;;;;;;;;;22.20;36.80;;;;;;1512552;76;782;-59
2021/01/14 01:33:56;;;;;;;;;;;22.20;36.80;;;;;;1501372;76;746;-58
2021/01/14 01:35:58;;;;;;;;;;;22.20;36.80;;;;;;1511990;78;843;-59
2021/01/14 01:38:00;;;;;;;;;;;22.20;36.90;;;;;;1506144;76;1945;-57
2021/01/14 01:40:02;;;;;;;;;;;22.10;37.00;;;;;;1508775;76;1010;-60
2021/01/14 01:42:04;;;;;;;;;;;22.20;37.10;;;;;;1508022;76;869;-59
2021/01/14 01:44:06;;;;;;;;;;;22.20;37.10;;;;;;1503986;76;765;-59
2021/01/14 01:46:08;;;;;;;;;;;22.10;37.20;;;;;;1513554;77;1182;-60
2021/01/14 01:48:10;;;;;;;;;;;22.20;37.10;;;;;;1503360;76;747;-59
2021/01/14 01:50:12;;;;;;;;;;;22.20;37.00;;;;;;1503214;76;687;-59
2021/01/14 01:52:14;;;;;;;;;;;22.30;37.10;;;;;;1505303;76;699;-59
2021/01/14 01:54:16;;;;;;;;;;;22.20;36.90;;;;;;1508274;76;737;-60
2021/01/14 01:56:18;;;;;;;;;;;22.30;37.00;;;;;;1510739;76;1108;-59
2021/01/14 01:58:23;;;;;;;;;;;22.30;37.00;;;;;;1510066;76;1951;-60
2021/01/14 02:00:24;;;;;;;;;;;22.30;36.90;;;;;;1512965;76;731;-60
2021/01/14 02:02:27;;;;;;;;;;;22.30;36.90;;;;;;1511070;76;722;-59
2021/01/14 02:04:29;;;;;;;;;;;22.30;36.80;;;;;;1507235;76;750;-60
2021/01/14 02:06:30;;;;;;;;;;;22.30;36.80;;;;;;1507471;76;1184;-59
2021/01/14 02:08:37;;;;;;;;;;;22.30;36.90;;;;;;1515763;76;802;-59
2021/01/14 02:10:40;;;;;;;;;;;22.30;36.90;;;;;;1520535;76;1969;-59
2021/01/14 02:12:44;;;;;;;;;;;22.30;37.00;;;;;;1510376;76;1783;-59
2021/01/14 02:14:45;;;;;;;;;;;22.30;37.00;;;;;;1513571;76;1764;-58
2021/01/14 02:16:50;;;;;;;;;;;22.40;37.00;;;;;;1511426;76;1154;-59
2021/01/14 02:18:55;;;;;;;;;;;22.30;37.00;;;;;;1486089;78;1924;-58
2021/01/14 02:20:58;;;;;;;;;;;22.30;37.10;;;;;;1510239;76;704;-59
2021/01/14 02:23:02;;;;;;;;;;;22.30;37.00;;;;;;1506344;76;965;-59
2021/01/14 02:25:17;;;;;;;;;;;22.40;36.90;;;;;;1508627;76;797;-59
2021/01/14 02:27:19;;;;;;;;;;;22.40;36.90;;;;;;1507665;76;1156;-59
2021/01/14 02:29:21;;;;;;;;;;;22.30;36.90;;;;;;1497481;76;777;-59
2021/01/14 02:31:23;;;;;;;;;;;22.40;36.90;;;;;;1505501;76;794;-60
2021/01/14 02:33:25;;;;;;;;;;;22.30;36.90;;;;;;1511157;76;581;-60
2021/01/14 02:35:27;;;;;;;;;;;22.30;36.80;;;;;;1515047;76;706;-60
2021/01/14 02:37:29;;;;;;;;;;;22.30;36.90;;;;;;1501221;76;1148;-59
2021/01/14 02:39:31;;;;;;;;;;;22.30;36.90;;;;;;1504245;76;1947;-59
2021/01/14 02:41:33;;;;;;;;;;;22.40;36.80;;;;;;1516636;76;737;-59
2021/01/14 02:43:35;;;;;;;;;;;22.40;36.80;;;;;;1514050;76;746;-60
2021/01/14 02:45:37;;;;;;;;;;;22.40;37.00;;;;;;1508931;76;734;-59
2021/01/14 02:47:39;;;;;;;;;;;22.30;37.10;;;;;;1513603;76;1159;-59
2021/01/14 02:49:50;;;;;;;;;;;22.30;37.50;;;;;;1506166;76;688;-59
2021/01/14 02:51:54;;;;;;;;;;;22.30;37.60;;;;;;1516275;76;777;-59
2021/01/14 02:53:56;;;;;;;;;;;22.20;37.60;;;;;;1512388;76;755;-59
2021/01/14 02:55:59;;;;;;;;;;;22.30;37.80;;;;;;1514541;76;726;-59
2021/01/14 02:58:01;;;;;;;;;;;22.30;37.70;;;;;;1514636;76;1934;-59
2021/01/14 03:00:03;;;;;;;;;;;22.30;37.80;;;;;;1512171;76;974;-59
2021/01/14 03:02:05;;;;;;;;;;;22.20;37.70;;;;;;1511349;76;782;-59
2021/01/14 03:04:11;;;;;;;;;;;22.30;37.80;;;;;;1508319;76;752;-59
2021/01/14 03:06:11;;;;;;;;;;;22.30;37.80;;;;;;1515448;76;1171;-59
2021/01/14 03:08:12;;;;;;;;;;;22.30;37.90;;;;;;1512156;76;767;-60
2021/01/14 03:10:14;;;;;;;;;;;22.30;37.80;;;;;;1511037;76;763;-60
2021/01/14 03:12:16;;;;;;;;;;;22.30;37.90;;;;;;1515336;76;793;-60
2021/01/14 03:14:18;;;;;;;;;;;22.30;37.80;;;;;;1502627;76;746;-60
2021/01/14 03:16:20;;;;;;;;;;;22.40;37.80;;;;;;1520058;77;1201;-59
2021/01/14 03:18:22;;;;;;;;;;;22.40;37.70;;;;;;1512528;76;1920;-59
2021/01/14 03:20:24;;;;;;;;;;;22.40;37.80;;;;;;1511582;76;634;-59
2021/01/14 03:22:26;;;;;;;;;;;22.30;37.80;;;;;;1506875;76;776;-59
2021/01/14 03:24:29;;;;;;;;;;;22.40;37.80;;;;;;1512743;76;700;-60
2021/01/14 03:26:30;;;;;;;;;;;22.30;37.80;;;;;;1520221;76;1150;-59
2021/01/14 03:28:32;;;;;;;;;;;22.40;37.80;;;;;;1510777;76;732;-59
2021/01/14 03:30:34;;;;;;;;;;;22.40;37.80;;;;;;1516851;76;781;-60
2021/01/14 03:32:36;;;;;;;;;;;22.40;37.90;;;;;;1514217;76;682;-59
2021/01/14 03:34:38;;;;;;;;;;;22.30;38.00;;;;;;1510202;76;719;-60
2021/01/14 03:36:56;;;;;;;;;;;22.40;38.10;;;;;;1510358;76;1184;-59
2021/01/14 03:38:44;;;;;;;;;;;22.30;38.20;;;;;;1505315;76;1927;-59
2021/01/14 03:40:45;;;;;;;;;;;22.30;38.20;;;;;;1515434;75;781;-60
2021/01/14 03:42:47;;;;;;;;;;;22.40;38.20;;;;;;1513097;76;717;-59
2021/01/14 03:44:49;;;;;;;;;;;22.40;38.10;;;;;;1508519;76;747;-60
2021/01/14 03:46:52;;;;;;;;;;;22.40;38.30;;;;;;1507049;76;1176;-60
2021/01/14 03:48:53;;;;;;;;;;;22.40;38.30;;;;;;1508431;76;778;-59
2021/01/14 03:50:55;;;;;;;;;;;22.40;38.20;;;;;;1511848;76;795;-60
2021/01/14 03:52:57;;;;;;;;;;;22.40;38.10;;;;;;1510684;76;764;-60
2021/01/14 03:55:00;;;;;;;;;;;22.40;38.30;;;;;;1517870;76;787;-60
2021/01/14 03:57:02;;;;;;;;;;;22.40;38.50;;;;;;1516796;76;1193;-59
2021/01/14 03:59:04;;;;;;;;;;;22.40;38.40;;;;;;1509336;76;1934;-60
2021/01/14 04:01:06;;;;;;;;;;;22.40;38.40;;;;;;1519047;76;812;-59
2021/01/14 04:03:08;;;;;;;;;;;22.40;38.40;;;;;;1517531;76;814;-59
2021/01/14 04:05:10;;;;;;;;;;;22.40;38.50;;;;;;1514706;76;680;-59
2021/01/14 04:07:13;;;;;;;;;;;22.40;38.60;;;;;;1503251;76;1192;-60
2021/01/14 04:09:15;;;;;;;;;;;22.40;38.60;;;;;;1512256;76;682;-59
2021/01/14 04:11:17;;;;;;;;;;;22.30;38.60;;;;;;1512075;76;643;-60
2021/01/14 04:13:19;;;;;;;;;;;22.40;38.70;;;;;;1510818;76;872;-60
2021/01/14 04:15:21;;;;;;;;;;;22.30;38.80;;;;;;1516095;76;606;-58
2021/01/14 04:17:23;;;;;;;;;;;22.30;38.80;;;;;;1519166;76;1345;-58
2021/01/14 04:19:25;;;;;;;;;;;22.30;38.90;;;;;;1514868;76;1929;-59
2021/01/14 04:21:27;;;;;;;;;;;22.20;38.80;;;;;;1511057;76;704;-59
2021/01/14 04:23:29;;;;;;;;;;;22.20;38.90;;;;;;1520374;76;729;-58
2021/01/14 04:25:31;;;;;;;;;;;22.20;38.90;;;;;;1514930;76;787;-58
2021/01/14 04:27:32;;;;;;;;;;;22.20;39.00;;;;;;1504608;76;1126;-60
2021/01/14 04:29:34;;;;;;;;;;;22.30;39.10;;;;;;1506715;76;801;-59
2021/01/14 04:31:36;;;;;;;;;;;22.30;39.10;;;;;;1520149;76;729;-60
2021/01/14 04:33:38;;;;;;;;;;;22.20;38.90;;;;;;1509642;76;810;-60
2021/01/14 04:35:54;;;;;;;;;;;22.30;39.00;;;;;;1514057;76;758;-60
2021/01/14 04:37:56;;;;;;;;;;;22.20;38.90;;;;;;1510842;76;1548;-59
2021/01/14 04:39:58;;;;;;;;;;;22.30;39.20;;;;;;1512215;76;1942;-58
2021/01/14 04:41:59;;;;;;;;;;;22.30;39.20;;;;;;1514084;76;698;-59
2021/01/14 04:44:02;;;;;;;;;;;22.30;39.00;;;;;;1509227;76;809;-58
2021/01/14 04:46:05;;;;;;;;;;;22.30;38.90;;;;;;1514210;76;789;-59
2021/01/14 04:48:07;;;;;;;;;;;22.30;38.50;;;;;;1525460;76;1666;-59
2021/01/14 04:50:10;;;;;;;;;;;22.30;38.60;;;;;;1515952;76;725;-58
2021/01/14 04:52:13;;;;;;;;;;;22.30;38.50;;;;;;1514874;76;773;-58
2021/01/14 04:54:16;;;;;;;;;;;22.30;38.50;;;;;;1514144;76;1730;-59
2021/01/14 04:56:19;;;;;;;;;;;22.30;38.40;;;;;;1518783;76;1144;-58
2021/01/14 04:58:21;;;;;;;;;;;22.30;38.50;;;;;;1509121;76;665;-58
2021/01/14 05:00:25;;;;;;;;;;;22.30;38.50;;;;;;1520033;76;1933;-58
2021/01/14 05:02:27;;;;;;;;;;;22.30;38.60;;;;;;1514816;76;728;-60
2021/01/14 05:04:32;;;;;;;;;;;22.30;38.40;;;;;;1516751;76;730;-58
2021/01/14 05:06:35;;;;;;;;;;;22.30;38.40;;;;;;1521072;76;1181;-58
2021/01/14 05:08:36;;;;;;;;;;;22.30;38.50;;;;;;1508684;76;776;-59
2021/01/14 05:10:38;;;;;;;;;;;22.30;38.40;;;;;;1511781;76;682;-59
2021/01/14 05:12:40;;;;;;;;;;;22.30;38.40;;;;;;1520807;76;696;-58
2021/01/14 05:14:42;;;;;;;;;;;22.30;38.50;;;;;;1510444;76;747;-59
2021/01/14 05:16:44;;;;;;;;;;;22.40;38.60;;;;;;1520327;76;1122;-59
2021/01/14 05:18:46;;;;;;;;;;;22.40;38.40;;;;;;1519679;76;726;-58
2021/01/14 05:20:48;;;;;;;;;;;22.40;38.40;;;;;;1517574;76;1940;-59
2021/01/14 05:22:51;;;;;;;;;;;22.40;38.40;;;;;;1517082;76;781;-59
2021/01/14 05:25:03;;;;;;;;;;;22.30;38.50;;;;;;1517154;76;796;-59
2021/01/14 05:27:07;;;;;;;;;;;22.40;38.40;;;;;;1520149;76;1749;-58
2021/01/14 05:29:15;;;;;;;;;;;22.40;38.40;;;;;;1518744;76;1029;-59
2021/01/14 05:31:17;;;;;;;;;;;22.40;38.40;;;;;;1520268;76;685;-58
2021/01/14 05:33:23;;;;;;;;;;;22.40;38.30;;;;;;1520831;76;706;-59
2021/01/14 05:35:28;;;;;;;;;;;22.40;38.30;;;;;;1520914;76;812;-58
2021/01/14 05:37:30;;;;;;;;;;;22.40;38.30;;;;;;1519766;76;1156;-58
2021/01/14 05:39:32;;;;;;;;;;;22.40;38.40;;;;;;1518373;76;1929;-59
2021/01/14 05:41:34;;;;;;;;;;;22.40;38.20;;;;;;1478653;78;717;-59
2021/01/14 05:43:54;;;;;;;;;;;22.40;38.30;;;;;;1502783;77;801;-60
2021/01/14 05:45:58;;;;;;;;;;;22.40;38.30;;;;;;1497360;77;703;-59
2021/01/14 05:48:12;;;;;;;;;;;22.40;38.40;;;;;;1494871;77;1818;-60
2021/01/14 05:50:14;;;;;;;;;;;22.40;38.60;;;;;;1498046;77;789;-59
2021/01/14 05:52:16;;;;;;;;;;;22.40;38.40;;;;;;1492556;77;726;-59
2021/01/14 05:54:19;;;;;;;;;;;22.40;38.60;;;;;;1494851;77;820;-58
2021/01/14 05:56:25;;;;;;;;;;;22.40;38.50;;;;;;1503853;77;1331;-58
2021/01/14 05:58:27;;;;;;;;;;;22.40;38.40;;;;;;1501858;77;797;-59
2021/01/14 06:00:30;;;;;;;;;;;22.40;38.50;;;;;;1508188;77;1929;-58
2021/01/14 06:02:32;;;;;;;;;;;22.50;38.50;;;;;;1493097;77;982;-60
2021/01/14 06:04:34;;;;;;;;;;;22.50;38.50;;;;;;1503521;77;719;-59
2021/01/14 06:06:36;;;;;;;;;;;22.40;38.40;;;;;;1512858;77;1135;-59
2021/01/14 06:08:38;;;;;;;;;;;22.50;38.60;;;;;;1506255;77;778;-59
2021/01/14 06:10:41;;;;;;;;;;;22.50;38.60;;;;;;1516707;77;718;-59
2021/01/14 06:12:48;;;;;;;;;;;22.40;38.60;;;;;;1519277;77;733;-59
2021/01/14 06:14:50;;;;;;;;;;;22.50;38.60;;;;;;1511404;77;1083;-60
2021/01/14 06:16:52;;;;;;;;;;;22.50;38.50;;;;;;1511837;77;1151;-58
2021/01/14 06:19:06;;;;;;;;;;;22.50;38.50;;;;;;1507427;77;710;-58
2021/01/14 06:21:08;;;;;;;;;;;22.50;38.70;;;;;;1504357;77;1918;-58
2021/01/14 06:23:10;;;;;;;;;;;22.50;39.00;;;;;;1503249;77;674;-59
2021/01/14 06:25:12;;;;;;;;;;;22.50;38.70;;;;;;1509770;77;734;-59
2021/01/14 06:27:14;;;;;;;;;;;22.50;38.70;;;;;;1503523;77;1165;-59
2021/01/14 06:29:18;;;;;;;;;;;22.50;38.70;;;;;;1501442;77;683;-59
2021/01/14 06:31:21;;;;;;;;;;;22.50;38.60;;;;;;1505907;77;1674;-58
2021/01/14 06:33:25;;;;;;;;;;;22.50;38.60;;;;;;1503544;77;948;-59
2021/01/14 06:35:27;;;;;;;;;;;22.50;38.50;;;;;;1507285;77;681;-60
2021/01/14 06:37:29;;;;;;;;;;;22.50;38.50;;;;;;1509009;77;1143;-59
2021/01/14 06:39:31;;;;;;;;;;;22.50;38.60;;;;;;1510918;77;1944;-60
2021/01/14 06:41:34;;;;;;;;;;;22.60;38.40;;;;;;1503354;77;817;-59
2021/01/14 06:43:36;;;;;;;;;;;22.50;38.50;;;;;;1511907;77;726;-59
2021/01/14 06:45:40;;;;;;;;;;;22.60;38.40;;;;;;1512297;77;695;-59
2021/01/14 06:47:42;;;;;;;;;;;22.60;38.50;;;;;;1514804;77;1411;-59
2021/01/14 06:49:45;;;;;;;;;;;22.60;38.50;;;;;;1515069;77;724;-58
2021/01/14 06:51:52;;;;;;;;;;;22.60;38.40;;;;;;1501993;77;674;-58
2021/01/14 06:53:55;;;;;;;;;;;22.50;38.40;;;;;;1497976;77;671;-59
2021/01/14 06:55:56;;;;;;;;;;;22.50;38.40;;;;;;1502818;77;775;-59
2021/01/14 06:58:08;;;;;;;;;;;22.70;38.40;;;;;;1506544;77;1128;-59
2021/01/14 07:00:10;;;;;;;;;;;22.60;38.30;;;;;;1507617;77;1902;-59
2021/01/14 07:02:26;;;;;;;;;;;22.60;38.40;;;;;;1501497;77;748;-59
2021/01/14 07:04:39;;;;;;;;;;;22.60;38.50;;;;;;1502239;77;1629;-60
2021/01/14 07:06:40;;;;;;;;;;;22.60;38.50;;;;;;1511254;77;1202;-59
2021/01/14 07:08:43;;;;;;;;;;;22.60;38.50;;;;;;1509246;77;733;-60
2021/01/14 07:10:46;;;;;;;;;;;22.90;38.70;;;;;;1510526;77;679;-58
2021/01/14 07:12:48;;;;;;;;;;;22.70;38.50;;;;;;1500971;77;1831;-60
2021/01/14 07:14:50;;;;;;;;;;;22.60;38.40;;;;;;1505768;77;744;-59
2021/01/14 07:16:53;;;;;;;;;;;22.70;38.40;;;;;;1512571;77;1197;-59
2021/01/14 07:18:56;;;;;;;;;;;22.70;38.60;;;;;;1514203;76;1827;-59
2021/01/14 07:21:00;;;;;;;;;;;22.70;38.80;;;;;;1502429;77;1927;-60
2021/01/14 07:23:02;;;;;;;;;;;22.70;38.80;;;;;;1499608;77;1620;-59
2021/01/14 07:25:04;;;;;;;;;;;22.70;38.90;;;;;;1506407;77;738;-59
2021/01/14 07:27:06;;;;;;;;;;;22.70;38.90;;;;;;1510593;77;1104;-58
2021/01/14 07:29:08;;;;;;;;;;;22.70;38.90;;;;;;1481511;78;1443;-59
2021/01/14 07:31:14;;;;;;;;;;;22.60;38.80;;;;;;1511083;77;680;-59
2021/01/14 07:33:18;;;;;;;;;;;22.70;38.80;;;;;;1510765;77;1068;-59
2021/01/14 07:35:38;;;;;;;;;;;22.70;38.80;;;;;;1507981;77;1676;-59
2021/01/14 07:37:53;;;;;;;;;;;22.70;38.80;;;;;;1508253;77;1144;-60
2021/01/14 07:39:59;;;;;;;;;;;22.70;38.80;;;;;;1508334;77;1898;-59
2021/01/14 07:41:59;;;;;;;;;;;22.70;38.70;;;;;;1499576;77;1141;-59
2021/01/14 07:44:00;;;;;;;;;;;22.70;38.60;;;;;;1508969;77;709;-60
2021/01/14 07:46:21;;;;;;;;;;;22.70;38.70;;;;;;1504092;77;681;-59
2021/01/14 07:48:24;;;;;;;;;;;22.70;38.70;;;;;;1508247;77;723;-58
2021/01/14 07:50:28;;;;;;;;;;;22.70;38.60;;;;;;1507357;77;736;-59
2021/01/14 07:52:34;;;;;;;;;;;22.70;38.70;;;;;;1508212;77;710;-59
2021/01/14 07:54:36;;;;;;;;;;;22.70;38.60;;;;;;1514072;77;696;-59
2021/01/14 07:56:45;;;;;;;;;;;22.80;38.60;;;;;;1504481;77;1180;-59
2021/01/14 07:58:47;;;;;;;;;;;22.80;38.60;;;;;;1509637;77;732;-59
2021/01/14 08:01:00;;;;;;;;;;;22.80;38.60;;;;;;1511345;77;1941;-58
2021/01/14 08:03:06;;;;;;;;;;;22.80;38.60;;;;;;1507908;77;736;-59
2021/01/14 08:05:08;;;;;;;;;;;22.80;38.70;;;;;;1509775;77;749;-59
2021/01/14 08:07:23;;;;;;;;;;;22.80;38.80;;;;;;1505503;77;1183;-59
2021/01/14 08:09:25;;;;;;;;;;;22.70;38.90;;;;;;1514625;77;704;-61
2021/01/14 08:11:28;;;;;;;;;;;22.80;38.90;;;;;;1507568;77;773;-60
2021/01/14 08:13:30;;;;;;;;;;;22.80;38.90;;;;;;1505197;77;1091;-59
2021/01/14 08:15:35;;;;;;;;;;;22.70;38.90;;;;;;1506777;77;819;-60
2021/01/14 08:17:37;;;;;;;;;;;22.80;38.90;;;;;;1485731;78;1130;-59
2021/01/14 08:19:39;;;;;;;;;;;22.80;38.80;;;;;;1512545;77;743;-60
2021/01/14 08:21:43;;;;;;;;;;;22.80;38.90;;;;;;1503864;77;1893;-60
2021/01/14 08:23:45;;;;;;;;;;;22.80;38.70;;;;;;1496967;77;1901;-59
2021/01/14 08:25:47;;;;;;;;;;;22.80;38.80;;;;;;1504735;77;669;-59
2021/01/14 08:27:49;;;;;;;;;;;22.80;38.60;;;;;;1508498;77;1132;-59
2021/01/14 08:30:01;;;;;;;;;;;22.80;38.60;;;;;;1504273;77;675;-60
2021/01/14 08:32:03;;;;;;;;;;;22.80;38.70;;;;;;1505397;77;885;-59
2021/01/14 08:34:08;;;;;;;;;;;22.80;38.60;;;;;;1501331;77;766;-59
2021/01/14 08:36:10;;;;;;;;;;;22.80;38.60;;;;;;1499880;77;1131;-59
2021/01/14 08:38:15;;;;;;;;;;;22.80;38.70;;;;;;1501259;77;656;-58
2021/01/14 08:40:24;;;;;;;;;;;22.80;38.70;;;;;;1507601;77;1953;-59
2021/01/14 08:42:30;;;;;;;;;;;22.90;38.80;;;;;;1507866;77;847;-61
2021/01/14 08:44:32;;;;;;;;;;;22.80;38.90;;;;;;1502449;77;723;-59
2021/01/14 08:46:38;;;;;;;;;;;22.80;38.80;;;;;;1509887;77;1166;-60
2021/01/14 08:48:40;;;;;;;;;;;22.90;38.90;;;;;;1512024;77;940;-60
2021/01/14 08:50:45;;;;;;;;;;;22.80;38.90;;;;;;1514509;77;803;-60
2021/01/14 08:52:47;;;;;;;;;;;22.90;38.90;;;;;;1507798;77;706;-59
2021/01/14 08:54:49;;;;;;;;;;;22.80;38.70;;;;;;1512505;77;816;-59
2021/01/14 08:56:51;;;;;;;;;;;22.90;38.60;;;;;;1503948;77;1139;-59
2021/01/14 08:58:53;;;;;;;;;;;23.00;38.40;;;;;;1482696;77;1354;-59
2021/01/14 09:00:55;;;;;;;;;;;22.90;38.20;;;;;;1510523;77;1914;-59
2021/01/14 09:02:57;;;;;;;;;;;22.90;38.10;;;;;;1505225;77;688;-59
2021/01/14 09:05:02;;;;;;;;;;;22.90;38.10;;;;;;1511397;77;653;-60
2021/01/14 09:07:04;;;;;;;;;;;22.90;38.10;;;;;;1504586;77;1133;-59
2021/01/14 09:09:08;;;;;;;;;;;22.90;38.00;;;;;;1518458;76;659;-59
2021/01/14 09:11:09;;;;;;;;;;;22.90;38.00;;;;;;1505158;77;777;-59
2021/01/14 09:13:12;;;;;;;;;;;22.90;37.80;;;;;;1512441;77;737;-57
2021/01/14 09:15:15;;;;;;;;;;;22.90;37.90;;;;;;1507007;77;736;-59
2021/01/14 09:17:17;;;;;;;;;;;23.00;37.70;;;;;;1508506;77;1641;-58
2021/01/14 09:19:20;;;;;;;;;;;23.00;37.50;;;;;;1506815;77;731;-59
2021/01/14 09:21:22;;;;;;;;;;;23.00;37.30;;;;;;1513146;77;1909;-59
2021/01/14 09:23:24;;;;;;;;;;;23.10;37.30;;;;;;1510673;77;808;-58
2021/01/14 09:25:33;;;;;;;;;;;23.10;37.10;;;;;;1502433;77;675;-58
2021/01/14 09:27:35;;;;;;;;;;;23.10;36.90;;;;;;1503573;77;1097;-58
2021/01/14 09:29:36;;;;;;;;;;;23.10;36.70;;;;;;1506629;77;747;-58
2021/01/14 09:31:40;;;;;;;;;;;23.10;36.70;;;;;;1507571;77;702;-59
2021/01/14 09:33:42;;;;;;;;;;;23.10;36.50;;;;;;1496495;77;1334;-58
2021/01/14 09:35:46;;;;;;;;;;;23.10;36.50;;;;;;1502387;77;719;-57
2021/01/14 09:37:48;;;;;;;;;;;23.10;36.40;;;;;;1510725;77;1805;-58
2021/01/14 09:39:50;;;;;;;;;;;23.10;36.40;;;;;;1506976;77;714;-59
2021/01/14 09:41:53;;;;;;;;;;;23.00;36.10;;;;;;1505526;77;1947;-58
2021/01/14 09:44:00;;;;;;;;;;;23.10;36.30;;;;;;1510574;77;838;-58
2021/01/14 09:46:02;;;;;;;;;;;23.10;36.30;;;;;;1509143;77;1677;-58
2021/01/14 09:48:04;;;;;;;;;;;23.00;36.10;;;;;;1510748;77;1111;-58
2021/01/14 09:50:06;;;;;;;;;;;23.00;36.00;;;;;;1510482;77;754;-58
2021/01/14 09:52:08;;;;;;;;;;;23.10;36.20;;;;;;1507084;77;883;-58
2021/01/14 09:54:10;;;;;;;;;;;23.10;36.10;;;;;;1511964;77;800;-58
2021/01/14 09:56:20;;;;;;;;;;;23.10;36.00;;;;;;1507759;77;1214;-58
2021/01/14 09:58:22;;;;;;;;;;;23.10;36.00;;;;;;1486109;77;1216;-58
2021/01/14 10:00:24;;;;;;;;;;;23.10;36.00;;;;;;1505712;76;1005;-58
2021/01/14 10:02:26;;;;;;;;;;;23.10;36.00;;;;;;1500758;77;745;-59
2021/01/14 10:04:28;;;;;;;;;;;23.00;35.80;;;;;;1511808;77;763;-60
2021/01/14 10:06:31;;;;;;;;;;;23.00;35.80;;;;;;1508689;77;1188;-58
2021/01/14 10:08:32;;;;;;;;;;;23.00;35.80;;;;;;1509376;77;858;-59
2021/01/14 10:10:34;;;;;;;;;;;23.00;35.70;;;;;;1505636;77;706;-59
2021/01/14 10:12:36;;;;;;;;;;;23.00;35.70;;;;;;1496862;77;796;-59
2021/01/14 10:14:38;;;;;;;;;;;23.00;35.60;;;;;;1503670;77;756;-59
2021/01/14 10:16:40;;;;;;;;;;;22.90;35.80;;;;;;1503020;77;1128;-58
2021/01/14 10:18:42;;;;;;;;;;;22.90;36.00;;;;;;1505175;77;702;-59
2021/01/14 10:20:44;;;;;;;;;;;22.90;36.00;;;;;;1502123;77;1926;-58
2021/01/14 10:22:49;;;;;;;;;;;23.00;35.90;;;;;;1504610;77;731;-59
2021/01/14 10:24:51;;;;;;;;;;;23.00;35.70;;;;;;1512709;77;855;-59
2021/01/14 10:26:53;;;;;;;;;;;23.00;35.60;;;;;;1507392;77;1148;-59
2021/01/14 10:28:55;;;;;;;;;;;23.00;35.70;;;;;;1506912;77;787;-59
2021/01/14 10:30:57;;;;;;;;;;;23.00;35.50;;;;;;1512765;77;741;-59
2021/01/14 10:33:02;;;;;;;;;;;23.00;35.60;;;;;;1513264;77;782;-61
2021/01/14 10:35:04;;;;;;;;;;;23.00;35.60;;;;;;1511110;77;642;-60
2021/01/14 10:37:06;;;;;;;;;;;23.00;35.50;;;;;;1508008;77;1144;-60
2021/01/14 10:39:08;;;;;;;;;;;23.00;35.50;;;;;;1504585;77;1097;-60
2021/01/14 10:41:12;;;;;;;;;;;23.00;35.50;;;;;;1494850;77;1934;-58
2021/01/14 10:43:14;;;;;;;;;;;23.00;35.50;;;;;;1515137;77;1463;-57
2021/01/14 10:45:26;;;;;;;;;;;22.90;35.60;;;;;;1511905;77;693;-58
2021/01/14 10:47:28;;;;;;;;;;;22.90;35.70;;;;;;1508606;77;1206;-59
2021/01/14 10:49:30;;;;;;;;;;;23.00;35.60;;;;;;1511750;77;709;-59
2021/01/14 10:51:32;;;;;;;;;;;22.90;35.50;;;;;;1512365;77;707;-59
2021/01/14 10:53:37;;;;;;;;;;;22.90;35.50;;;;;;1514801;77;697;-58
2021/01/14 10:55:38;;;;;;;;;;;23.00;35.50;;;;;;1512019;77;1462;-59
2021/01/14 10:57:42;;;;;;;;;;;22.90;35.40;;;;;;1507968;77;1160;-58
2021/01/14 10:59:44;;;;;;;;;;;23.00;35.50;;;;;;1505765;77;1619;-58
2021/01/14 11:01:46;;;;;;;;;;;23.00;35.40;;;;;;1512679;77;1933;-58
2021/01/14 11:03:48;;;;;;;;;;;23.00;35.40;;;;;;1507983;77;751;-59
2021/01/14 11:05:53;;;;;;;;;;;23.00;35.40;;;;;;1508215;77;740;-59
2021/01/14 11:07:57;;;;;;;;;;;22.90;35.40;;;;;;1502863;77;1092;-60
2021/01/14 11:09:58;;;;;;;;;;;22.90;35.40;;;;;;1510719;77;1906;-59
2021/01/14 11:12:02;;;;;;;;;;;22.90;35.60;;;;;;1507476;77;798;-58
2021/01/14 11:14:04;;;;;;;;;;;22.90;35.30;;;;;;1512890;77;1745;-60
2021/01/14 11:16:06;;;;;;;;;;;22.90;35.20;;;;;;1509680;77;1142;-58
2021/01/14 11:18:08;;;;;;;;;;;22.90;35.30;;;;;;1513457;77;761;-60
2021/01/14 11:20:11;;;;;;;;;;;22.80;35.10;;;;;;1512083;77;749;-59
2021/01/14 11:22:13;;;;;;;;;;;22.80;35.20;;;;;;1509001;77;1933;-59
2021/01/14 11:24:15;;;;;;;;;;;22.90;35.20;;;;;;1507121;77;691;-58
2021/01/14 11:26:18;;;;;;;;;;;22.80;35.10;;;;;;1511533;77;1135;-58
2021/01/14 11:28:20;;;;;;;;;;;22.90;35.40;;;;;;1505991;77;774;-59
2021/01/14 11:30:22;;;;;;;;;;;22.80;35.50;;;;;;1513002;77;759;-60
2021/01/14 11:32:24;;;;;;;;;;;22.90;36.20;;;;;;1505270;77;1075;-60
2021/01/14 11:34:26;;;;;;;;;;;22.80;36.60;;;;;;1503928;77;685;-60
2021/01/14 11:36:28;;;;;;;;;;;23.00;37.50;;;;;;1505219;77;1124;-58
2021/01/14 11:38:30;;;;;;;;;;;22.80;38.10;;;;;;1513328;77;677;-59
2021/01/14 11:40:32;;;;;;;;;;;22.80;38.10;;;;;;1513156;77;752;-59
2021/01/14 11:42:33;;;;;;;;;;;22.80;38.20;;;;;;1508695;77;1930;-58
2021/01/14 11:44:35;;;;;;;;;;;23.00;38.00;;;;;;1508151;77;810;-58
2021/01/14 11:46:37;;;;;;;;;;;22.90;37.60;;;;;;1513258;77;1302;-58
2021/01/14 11:48:39;;;;;;;;;;;22.90;37.30;;;;;;1508008;77;719;-58
2021/01/14 11:50:41;;;;;;;;;;;22.90;37.10;;;;;;1501658;77;786;-58
2021/01/14 11:52:43;;;;;;;;;;;22.90;37.00;;;;;;1507023;77;682;-60
2021/01/14 11:54:46;;;;;;;;;;;22.90;36.80;;;;;;1507117;77;797;-59
2021/01/14 11:56:49;;;;;;;;;;;22.90;36.80;;;;;;1511690;77;1110;-58
2021/01/14 11:58:51;;;;;;;;;;;22.90;36.70;;;;;;1513103;77;1914;-58
2021/01/14 12:00:53;;;;;;;;;;;22.90;36.70;;;;;;1500837;77;950;-58
2021/01/14 12:02:55;;;;;;;;;;;22.90;36.50;;;;;;1514341;77;1933;-58
2021/01/14 12:04:57;;;;;;;;;;;23.00;36.50;;;;;;1503637;77;779;-59
2021/01/14 12:06:59;;;;;;;;;;;22.90;36.40;;;;;;1510551;77;1158;-59
2021/01/14 12:09:01;;;;;;;;;;;23.00;36.30;;;;;;1513722;77;822;-59
2021/01/14 12:11:02;;;;;;;;;;;23.00;36.30;;;;;;1513451;77;669;-58
2021/01/14 12:13:04;;;;;;;;;;;23.10;36.30;;;;;;1513118;77;691;-58
2021/01/14 12:15:06;;;;;;;;;;;23.00;36.10;;;;;;1507509;77;769;-59
2021/01/14 12:17:08;;;;;;;;;;;23.00;36.00;;;;;;1503054;77;1090;-59